Gornji Humac, Croatia
Current Conditions -  °F | °C
As of 10:30 PM on Friday 21 Nov 2014 (Local Time) from LDSP Reporting Station
Clear Clear  
Wind Chill: 46°   Ceiling: Unl
Heat Index: 46°   Visibility: 6mi
Dew Point: 39°   Wind: 2mph
Humidity: 76%   Direction: NA
Pressure: 30.21"   Gusts: NA
Location:  43.29°N, 16.71°E
Report Text: LDSP 212030Z VRB02KT CAVOK 08/04 Q1023 NOSIG
Loading
Personal Weather Stations






























Interactive Weather Map New forecast layout! Learn more

10-Day Weather Forecast

Advertisements
Track Severe Weather on mobile